Time;durP1;ratioP1;P1;durP2;ratioP2;P2;SDS_P1;SDS_P2;PMS_P1;PMS_P2;Temp;Humidity;BMP_temperature;BMP_pressure;BME280_temperature;BME280_humidity;BME280_pressure;Samples;Min_cycle;Max_cycle;Signal;HPM_P1;HPM_P2
2021/11/06 00:01:41;;;;;;;94.15;37.38;;;;;;;15.18;81.00;100573.52;1774765;80;21163;-63
2021/11/06 00:04:08;;;;;;;84.07;38.73;;;;;;;15.18;81.02;100570.82;1767108;80;21442;-64
2021/11/06 00:06:34;;;;;;;86.37;36.33;;;;;;;15.18;81.08;100576.73;1761569;80;20990;-63
2021/11/06 00:09:03;;;;;;;92.25;35.52;;;;;;;15.18;81.05;100576.22;1763799;80;21002;-63
2021/11/06 00:11:30;;;;;;;89.28;36.98;;;;;;;15.17;81.02;100577.82;1762793;80;20928;-63
2021/11/06 00:13:58;;;;;;;90.32;34.92;;;;;;;15.15;81.03;100573.17;1765802;80;20933;-63
2021/11/06 00:16:25;;;;;;;81.42;36.00;;;;;;;15.15;81.10;100567.77;1766948;80;20904;-63
2021/11/06 00:18:52;;;;;;;75.30;35.15;;;;;;;15.14;81.18;100569.66;1767948;80;21490;-63
2021/11/06 00:21:18;;;;;;;82.02;35.75;;;;;;;15.15;81.16;100576.72;1766420;80;20932;-62
2021/11/06 00:23:45;;;;;;;83.72;35.45;;;;;;;15.16;81.14;100574.82;1790805;79;21465;-62
2021/11/06 00:26:11;;;;;;;80.92;34.67;;;;;;;15.15;81.14;100578.06;1790519;79;21125;-62
2021/11/06 00:28:38;;;;;;;88.22;36.40;;;;;;;15.14;81.19;100576.95;1783806;79;21472;-62
2021/11/06 00:31:04;;;;;;;85.53;35.28;;;;;;;15.14;81.21;100585.06;1776800;79;20915;-61
2021/11/06 00:33:31;;;;;;;98.92;36.45;;;;;;;15.13;81.25;100588.27;1786281;79;20988;-62
2021/11/06 00:35:57;;;;;;;91.17;36.28;;;;;;;15.13;81.25;100584.77;1782758;79;20974;-63
2021/11/06 00:38:24;;;;;;;91.32;35.08;;;;;;;15.13;81.36;100587.46;1786659;79;21123;-64
2021/11/06 00:40:50;;;;;;;81.10;34.20;;;;;;;15.13;81.35;100575.31;1764192;81;21599;-64
2021/11/06 00:43:18;;;;;;;90.15;35.30;;;;;;;15.13;81.39;100571.27;1770961;80;20975;-64
2021/11/06 00:45:45;;;;;;;91.17;35.85;;;;;;;15.13;81.38;100572.61;1767262;80;20892;-64
2021/11/06 00:48:11;;;;;;;92.60;34.98;;;;;;;15.15;81.36;100561.02;1766029;80;21533;-63
2021/11/06 00:50:38;;;;;;;80.60;34.98;;;;;;;15.16;81.34;100561.32;1766521;80;21226;-65
2021/11/06 00:53:04;;;;;;;103.32;37.70;;;;;;;15.16;81.30;100550.52;1764424;80;20923;-63
2021/11/06 00:55:31;;;;;;;99.13;37.95;;;;;;;15.13;81.22;100554.52;1765213;80;20990;-63
2021/11/06 00:58:00;;;;;;;89.55;36.60;;;;;;;15.09;81.34;100559.30;1767710;80;20923;-64
2021/11/06 01:00:27;;;;;;;97.37;38.55;;;;;;;15.05;81.45;100554.39;1790780;79;20976;-65
2021/11/06 01:02:54;;;;;;;93.80;36.73;;;;;;;15.05;81.48;100557.63;1808375;79;21787;-64
2021/11/06 01:05:20;;;;;;;90.05;35.90;;;;;;;15.03;81.54;100557.05;1802384;79;20924;-65
2021/11/06 01:07:47;;;;;;;88.97;36.53;;;;;;;15.03;81.61;100556.53;1801580;78;20924;-64
2021/11/06 01:10:14;;;;;;;95.07;37.95;;;;;;;15.03;81.66;100551.13;1799354;79;21646;-65
2021/11/06 01:12:41;;;;;;;88.67;36.87;;;;;;;15.05;81.68;100557.63;1802316;79;21418;-65
2021/11/06 01:15:10;;;;;;;81.65;35.20;;;;;;;15.08;81.63;100564.44;1801215;78;21050;-64
2021/11/06 01:17:37;;;;;;;94.87;38.85;;;;;;;15.09;81.62;100566.89;1800348;79;20979;-64
2021/11/06 01:20:05;;;;;;;91.00;37.80;;;;;;;15.09;81.53;100567.41;1798432;79;21484;-64
2021/11/06 01:22:32;;;;;;;89.25;36.83;;;;;;;15.11;81.50;100572.05;1802442;79;20903;-65
2021/11/06 01:25:00;;;;;;;85.15;35.00;;;;;;;15.11;81.48;100564.75;1798935;79;21018;-63
2021/11/06 01:27:27;;;;;;;77.80;34.40;;;;;;;15.12;81.47;100562.86;1801826;79;21117;-62
2021/11/06 01:29:53;;;;;;;89.92;36.80;;;;;;;15.11;81.47;100563.95;1802350;79;21018;-61
2021/11/06 01:32:20;;;;;;;87.15;37.63;;;;;;;15.10;81.49;100570.41;1798691;79;21058;-61
2021/11/06 01:34:46;;;;;;;80.47;35.58;;;;;;;15.09;81.54;100568.24;1803563;79;20956;-63
2021/11/06 01:37:13;;;;;;;83.03;34.40;;;;;;;15.11;81.57;100568.00;1801394;78;20951;-65
2021/11/06 01:39:39;;;;;;;81.60;35.43;;;;;;;15.09;81.54;100565.55;1802100;79;21831;-65
2021/11/06 01:42:06;;;;;;;84.03;34.73;;;;;;;15.10;81.58;100566.35;1800741;79;20908;-64
2021/11/06 01:44:34;;;;;;;76.57;35.58;;;;;;;15.10;81.51;100560.41;1801993;79;20991;-62
2021/11/06 01:47:00;;;;;;;79.70;34.30;;;;;;;15.10;81.50;100567.70;1801338;79;21545;-66
2021/11/06 01:49:27;;;;;;;84.32;33.85;;;;;;;15.09;81.54;100572.80;1757717;81;20985;-62
2021/11/06 01:51:54;;;;;;;78.28;34.85;;;;;;;15.08;81.58;100569.30;1753115;80;21072;-64
2021/11/06 01:54:23;;;;;;;75.35;33.88;;;;;;;15.06;81.54;100578.16;1769815;79;20966;-64
2021/11/06 01:56:55;;;;;;;74.53;32.65;;;;;;;15.01;81.60;100578.88;1812349;78;20959;-62
2021/11/06 01:59:23;;;;;;;81.17;31.80;;;;;;;14.98;81.74;100579.91;1806586;78;21080;-65
2021/11/06 02:01:50;;;;;;;76.20;33.45;;;;;;;14.97;81.80;100578.27;1811909;78;20998;-63
2021/11/06 02:04:16;;;;;;;78.33;33.00;;;;;;;14.93;81.86;100586.04;1813334;78;21107;-64
2021/11/06 02:06:43;;;;;;;77.70;32.73;;;;;;;14.92;82.03;100593.03;1816180;78;21059;-64
2021/11/06 02:09:10;;;;;;;68.25;31.40;;;;;;;14.91;82.05;100594.89;1812742;78;21466;-64
2021/11/06 02:11:38;;;;;;;78.65;32.78;;;;;;;14.91;82.13;100600.83;1814824;78;20932;-65
2021/11/06 02:14:05;;;;;;;70.80;30.52;;;;;;;14.91;82.22;100594.89;1811881;78;20978;-63
2021/11/06 02:16:33;;;;;;;73.33;31.65;;;;;;;14.91;82.28;100594.08;1811402;78;20979;-64
2021/11/06 02:19:00;;;;;;;80.07;31.07;;;;;;;14.92;82.29;100599.78;1795464;78;20908;-64
2021/11/06 02:21:27;;;;;;;61.98;29.75;;;;;;;14.94;82.29;100603.05;1811583;78;21501;-64
2021/11/06 02:23:54;;;;;;;61.10;29.30;;;;;;;14.95;82.23;100607.39;1786586;78;21109;-64
2021/11/06 02:26:22;;;;;;;63.58;31.17;;;;;;;14.94;82.22;100611.95;1777842;79;21002;-65
2021/11/06 02:28:53;;;;;;;63.35;31.35;;;;;;;14.94;82.09;100610.60;1783531;79;21119;-63
2021/11/06 02:31:21;;;;;;;63.02;30.72;;;;;;;14.94;82.06;100617.34;1789410;79;21014;-64
2021/11/06 02:33:49;;;;;;;68.33;31.50;;;;;;;14.92;82.07;100615.43;1782297;79;20928;-64
2021/11/06 02:36:16;;;;;;;70.17;31.02;;;;;;;14.94;82.06;100617.34;1775679;79;21018;-64
2021/11/06 02:38:43;;;;;;;63.13;31.42;;;;;;;14.95;81.98;100619.00;1790527;79;21581;-64
2021/11/06 02:41:10;;;;;;;60.67;29.90;;;;;;;14.97;81.86;100617.41;1794561;79;21146;-63
2021/11/06 02:43:37;;;;;;;44.58;26.55;;;;;;;14.99;81.67;100617.45;1788338;79;20943;-62
2021/11/06 02:46:04;;;;;;;41.40;23.85;;;;;;;15.00;81.29;100623.67;1792124;79;21536;-65
2021/11/06 02:48:31;;;;;;;42.73;23.77;;;;;;;14.97;80.53;100619.59;1780299;79;20995;-64
2021/11/06 02:50:57;;;;;;;40.63;22.48;;;;;;;14.91;79.75;100620.53;1786800;78;20979;-65
2021/11/06 02:53:25;;;;;;;35.40;21.57;;;;;;;14.87;79.25;100624.80;1795757;79;21134;-65
2021/11/06 02:55:52;;;;;;;34.90;19.50;;;;;;;14.82;78.66;100616.58;1787821;78;20999;-64
2021/11/06 02:58:18;;;;;;;31.73;18.80;;;;;;;14.76;78.07;100615.66;1793940;79;21405;-65
2021/11/06 03:00:46;;;;;;;29.40;16.73;;;;;;;14.72;77.28;100606.40;1791598;79;21029;-65
2021/11/06 03:03:12;;;;;;;27.70;15.75;;;;;;;14.64;75.83;100613.54;1783749;79;20927;-65
2021/11/06 03:05:40;;;;;;;23.07;15.28;;;;;;;14.55;75.45;100623.31;1787935;79;21136;-65
2021/11/06 03:08:06;;;;;;;28.07;15.75;;;;;;;14.48;74.72;100619.11;1789270;79;21525;-64
2021/11/06 03:10:33;;;;;;;26.23;16.17;;;;;;;14.39;74.64;100620.55;1790486;79;20983;-63
2021/11/06 03:12:59;;;;;;;24.77;14.53;;;;;;;14.35;74.40;100626.42;1782804;79;21011;-63
2021/11/06 03:15:26;;;;;;;28.87;15.05;;;;;;;14.30;73.68;100641.66;1808840;78;21509;-64
2021/11/06 03:17:53;;;;;;;29.10;14.70;;;;;;;14.21;73.59;100645.24;1786781;79;21185;-63
2021/11/06 03:20:19;;;;;;;23.90;14.55;;;;;;;14.14;73.70;100660.17;1822986;78;20927;-64
2021/11/06 03:22:46;;;;;;;25.20;15.83;;;;;;;14.13;73.77;100665.30;1784505;79;21011;-64
2021/11/06 03:25:12;;;;;;;24.25;15.23;;;;;;;14.13;73.86;100669.84;1800988;79;20976;-65
2021/11/06 03:27:40;;;;;;;23.85;14.83;;;;;;;14.12;73.19;100668.20;1815470;77;20912;-62
2021/11/06 03:30:09;;;;;;;23.67;12.75;;;;;;;14.04;73.16;100676.66;1815386;78;21137;-60
2021/11/06 03:32:37;;;;;;;;;;;;;;;13.98;73.26;100685.95;1819836;78;20964;-60
2021/11/06 03:35:06;;;;;;;17.35;10.75;;;;;;;13.97;73.06;100695.11;1813312;78;20118;-61
2021/11/06 03:37:33;;;;;;;16.82;11.85;;;;;;;13.98;72.84;100693.22;1811062;78;21493;-60
2021/11/06 03:40:01;;;;;;;19.10;11.25;;;;;;;13.97;72.32;100709.09;1818739;78;21422;-61
2021/11/06 03:42:28;;;;;;;17.85;11.10;;;;;;;13.97;71.89;100713.13;1817058;78;21160;-61
2021/11/06 03:44:54;;;;;;;18.50;10.00;;;;;;;13.93;71.25;100710.63;1812209;78;21052;-63
2021/11/06 03:47:21;;;;;;;16.73;9.30;;;;;;;13.89;70.78;100722.39;1812760;78;20975;-64
2021/11/06 03:49:47;;;;;;;14.95;9.30;;;;;;;13.86;70.35;100726.89;1814977;78;21024;-63
2021/11/06 03:52:14;;;;;;;13.08;8.88;;;;;;;13.80;69.27;100736.72;1819074;78;21054;-62
2021/11/06 03:54:42;;;;;;;15.95;8.60;;;;;;;13.70;69.37;100734.30;1816793;78;21077;-62
2021/11/06 03:57:08;;;;;;;14.10;8.15;;;;;;;13.57;69.00;100740.16;1809503;78;20947;-64
2021/11/06 03:59:35;;;;;;;11.75;7.33;;;;;;;13.39;69.22;100757.72;1814220;78;20904;-65
2021/11/06 04:02:02;;;;;;;11.80;6.87;;;;;;;13.22;69.86;100754.28;1817993;77;20920;-65
2021/11/06 04:04:31;;;;;;;12.00;7.10;;;;;;;13.08;70.46;100779.70;1817143;78;21327;-63
2021/11/06 04:06:57;;;;;;;11.90;7.25;;;;;;;12.95;70.95;100777.97;1816598;78;21831;-64
2021/11/06 04:09:24;;;;;;;13.00;6.70;;;;;;;12.89;71.36;100758.69;1813172;78;21552;-64
2021/11/06 04:11:51;;;;;;;9.05;6.40;;;;;;;12.77;71.31;100765.34;1813902;78;20959;-65
2021/11/06 04:14:17;;;;;;;8.03;5.83;;;;;;;12.58;71.44;100790.04;1815529;78;21552;-64
2021/11/06 04:16:44;;;;;;;8.13;5.75;;;;;;;12.44;71.79;100788.00;1815959;78;21603;-65
2021/11/06 04:19:10;;;;;;;8.03;5.35;;;;;;;12.30;71.62;100803.94;1808028;78;21087;-65
2021/11/06 04:21:38;;;;;;;9.98;5.58;;;;;;;12.22;71.91;100812.56;1818016;78;21025;-64
2021/11/06 04:24:05;;;;;;;7.05;5.15;;;;;;;12.13;71.95;100803.63;1816922;78;21256;-63
2021/11/06 04:26:32;;;;;;;9.73;5.20;;;;;;;12.03;71.89;100803.60;1817192;78;20920;-64
2021/11/06 04:28:59;;;;;;;6.67;4.53;;;;;;;11.87;71.59;100816.18;1815722;78;20966;-63
2021/11/06 04:31:25;;;;;;;6.97;4.95;;;;;;;11.73;71.80;100826.16;1818111;78;21944;-64
2021/11/06 04:33:52;;;;;;;9.83;5.97;;;;;;;11.63;71.72;100832.01;1814463;78;20986;-65
2021/11/06 04:36:19;;;;;;;10.72;5.40;;;;;;;11.60;71.83;100827.56;1813648;78;20924;-63
2021/11/06 04:38:45;;;;;;;10.10;5.28;;;;;;;11.58;71.81;100829.94;1816911;78;20967;-63
2021/11/06 04:41:12;;;;;;;8.68;4.92;;;;;;;11.60;71.64;100824.88;1815178;78;21402;-64
2021/11/06 04:43:39;;;;;;;8.75;4.65;;;;;;;11.59;71.11;100828.09;1815466;78;21132;-64
2021/11/06 04:46:06;;;;;;;11.03;5.55;;;;;;;11.55;70.80;100816.94;1819095;78;20975;-65
2021/11/06 04:48:32;;;;;;;7.47;4.35;;;;;;;11.49;70.36;100827.20;1815394;78;21422;-64
2021/11/06 04:50:59;;;;;;;7.42;5.03;;;;;;;11.47;70.50;100837.34;1813605;78;20928;-64
2021/11/06 04:53:25;;;;;;;8.25;4.62;;;;;;;11.48;70.45;100834.94;1815786;78;21043;-64
2021/11/06 04:55:52;;;;;;;7.17;4.95;;;;;;;11.52;69.67;100832.67;1821054;77;21119;-65
2021/11/06 04:58:19;;;;;;;7.78;4.45;;;;;;;11.46;68.88;100828.97;1821596;78;20986;-63
2021/11/06 05:00:46;;;;;;;6.03;4.28;;;;;;;11.37;69.08;100845.83;1827716;77;21493;-64
2021/11/06 05:03:14;;;;;;;7.55;4.53;;;;;;;11.34;69.06;100839.55;1820604;78;21086;-64
2021/11/06 05:05:42;;;;;;;6.07;4.70;;;;;;;11.33;68.29;100843.25;1825057;78;20984;-66
2021/11/06 05:08:11;;;;;;;6.92;4.47;;;;;;;11.36;68.49;100847.38;1820534;78;21136;-64
2021/11/06 05:10:38;;;;;;;7.58;4.58;;;;;;;11.43;68.16;100845.50;1819054;77;20982;-64
2021/11/06 05:13:07;;;;;;;6.17;4.53;;;;;;;11.49;67.34;100851.89;1817349;78;20924;-64
2021/11/06 05:15:33;;;;;;;8.70;5.53;;;;;;;11.47;66.58;100853.45;1825224;76;20868;-67
2021/11/06 05:18:00;;;;;;;14.35;5.22;;;;;;;11.45;66.74;100874.82;1821351;78;21003;-63
2021/11/06 05:20:27;;;;;;;5.50;4.20;;;;;;;11.47;66.86;100868.71;1823539;77;21293;-64
2021/11/06 05:22:53;;;;;;;5.97;4.25;;;;;;;11.47;66.41;100864.19;1823212;78;21545;-64
2021/11/06 05:25:20;;;;;;;6.53;4.33;;;;;;;11.49;65.90;100852.70;1821096;77;21014;-64
2021/11/06 05:27:46;;;;;;;5.92;3.87;;;;;;;11.45;65.29;100846.63;1822495;77;21508;-64
2021/11/06 05:30:13;;;;;;;6.03;3.85;;;;;;;11.39;65.24;100861.22;1823552;78;21013;-64
2021/11/06 05:32:40;;;;;;;6.90;3.70;;;;;;;11.34;65.45;100861.02;1817220;78;21157;-64
2021/11/06 05:35:08;;;;;;;5.70;4.05;;;;;;;11.34;65.30;100884.36;1822947;78;20939;-64
2021/11/06 05:37:36;;;;;;;5.90;4.33;;;;;;;11.30;65.21;100889.84;1818919;78;21438;-64
2021/11/06 05:40:07;;;;;;;6.62;3.77;;;;;;;11.27;65.24;100891.60;1824547;77;21407;-64
2021/11/06 05:42:35;;;;;;;5.50;3.65;;;;;;;11.21;64.61;100904.81;1818857;78;21002;-64
2021/11/06 05:45:04;;;;;;;5.37;3.67;;;;;;;11.14;64.69;100904.52;1819708;77;21107;-63
2021/11/06 05:47:31;;;;;;;5.95;3.85;;;;;;;11.11;64.41;100909.78;1815434;78;20998;-64
2021/11/06 05:49:57;;;;;;;7.53;3.85;;;;;;;11.06;65.03;100913.61;1811451;77;22176;-64
2021/11/06 05:52:24;;;;;;;7.95;4.08;;;;;;;11.10;64.91;100909.48;1800582;79;20942;-63
2021/11/06 05:54:50;;;;;;;8.48;4.20;;;;;;;11.08;64.48;100910.20;1806815;78;21573;-63
2021/11/06 05:57:17;;;;;;;4.67;3.50;;;;;;;11.00;64.70;100909.91;1787087;78;21154;-65
2021/11/06 05:59:43;;;;;;;6.53;4.00;;;;;;;11.01;64.51;100910.22;1799977;78;20836;-64
2021/11/06 06:02:10;;;;;;;3.87;3.42;;;;;;;10.97;64.57;100913.00;1804540;78;21481;-64
2021/11/06 06:04:36;;;;;;;5.65;4.05;;;;;;;10.94;64.08;100927.33;1797908;78;20999;-64
2021/11/06 06:07:04;;;;;;;5.30;3.15;;;;;;;10.90;64.53;100925.59;1804049;78;20989;-64
2021/11/06 06:09:30;;;;;;;10.32;4.20;;;;;;;10.91;64.39;100942.50;1796175;78;21136;-67
2021/11/06 06:11:57;;;;;;;7.20;3.27;;;;;;;10.89;64.84;100952.63;1804949;78;20884;-63
2021/11/06 06:14:24;;;;;;;5.60;3.92;;;;;;;10.90;65.11;100957.78;1784239;79;21553;-63
2021/11/06 06:16:50;;;;;;;4.87;3.47;;;;;;;10.96;65.20;100962.84;1776474;79;20932;-64
2021/11/06 06:19:17;;;;;;;6.78;3.62;;;;;;;11.03;65.27;100965.01;1801187;78;20919;-63
2021/11/06 06:21:43;;;;;;;5.20;3.45;;;;;;;11.12;65.27;100959.73;1783326;78;21206;-64
2021/11/06 06:24:10;;;;;;;5.83;3.30;;;;;;;11.14;64.82;100964.37;1791008;78;20979;-64
2021/11/06 06:26:36;;;;;;;4.17;3.15;;;;;;;11.17;64.68;100968.50;1792876;78;20967;-64
2021/11/06 06:29:03;;;;;;;4.87;3.30;;;;;;;11.21;64.53;100980.48;1781563;78;21007;-64
2021/11/06 06:31:29;;;;;;;5.40;3.75;;;;;;;11.25;64.58;100984.41;1795397;78;20912;-64
2021/11/06 06:33:56;;;;;;;4.30;3.15;;;;;;;11.30;64.42;100991.83;1796165;78;21125;-64
2021/11/06 06:36:22;;;;;;;5.65;2.95;;;;;;;11.32;64.23;100992.44;1789550;77;21024;-64
2021/11/06 06:38:49;;;;;;;3.72;2.92;;;;;;;11.30;64.18;100992.64;1807042;78;21485;-64
2021/11/06 06:41:15;;;;;;;5.08;3.15;;;;;;;11.29;64.13;100991.52;1805814;78;20980;-64
2021/11/06 06:43:42;;;;;;;7.83;3.30;;;;;;;11.31;64.04;100994.83;1804260;78;21014;-63
2021/11/06 06:46:09;;;;;;;3.62;2.95;;;;;;;11.35;64.08;100994.70;1801225;78;21076;-65
2021/11/06 06:48:37;;;;;;;3.80;2.70;;;;;;;11.39;63.97;101003.50;1799364;78;20892;-64
2021/11/06 06:51:03;;;;;;;4.67;3.30;;;;;;;11.42;64.12;100988.00;1767308;79;20877;-63
2021/11/06 06:53:30;;;;;;;4.72;2.95;;;;;;;11.41;63.73;100989.87;1800399;78;21034;-64
2021/11/06 06:55:56;;;;;;;5.12;2.80;;;;;;;11.38;63.78;100990.25;1806042;78;22072;-64
2021/11/06 06:58:22;;;;;;;7.80;3.58;;;;;;;11.36;64.05;101003.89;1804739;78;21307;-64
2021/11/06 07:00:49;;;;;;;5.33;3.50;;;;;;;11.39;64.08;101014.73;1803617;78;21002;-64
2021/11/06 07:03:15;;;;;;;5.22;3.22;;;;;;;11.42;64.18;101007.61;1815426;77;20966;-64
2021/11/06 07:05:42;;;;;;;5.22;3.47;;;;;;;11.44;64.16;100999.34;1813549;77;21008;-64
2021/11/06 07:08:09;;;;;;;4.80;3.62;;;;;;;11.45;64.19;100995.10;1815286;77;20954;-63
2021/11/06 07:10:36;;;;;;;8.93;3.45;;;;;;;11.50;64.50;100997.19;1814294;77;21118;-64
2021/11/06 07:13:02;;;;;;;7.08;3.20;;;;;;;11.55;64.70;101006.77;1815745;77;20959;-63
2021/11/06 07:15:31;;;;;;;5.17;3.10;;;;;;;11.57;64.36;101008.22;1816475;77;20903;-64
2021/11/06 07:17:57;;;;;;;3.47;2.75;;;;;;;11.54;64.34;101003.77;1815871;77;21030;-63
2021/11/06 07:20:24;;;;;;;5.17;2.98;;;;;;;11.54;64.29;100998.40;1813087;77;21061;-67
2021/11/06 07:22:50;;;;;;;5.85;3.58;;;;;;;11.55;64.24;100998.72;1813830;77;21135;-64
2021/11/06 07:25:17;;;;;;;6.37;2.52;;;;;;;11.57;63.91;100997.98;1815072;77;21462;-63
2021/11/06 07:27:43;;;;;;;6.53;2.77;;;;;;;11.60;63.90;100998.93;1815784;77;20991;-64
2021/11/06 07:30:11;;;;;;;4.62;2.90;;;;;;;11.64;63.94;100996.64;1819905;77;20888;-65
2021/11/06 07:32:38;;;;;;;5.30;3.40;;;;;;;11.69;63.60;100996.81;1818389;77;21054;-64
2021/11/06 07:35:05;;;;;;;4.45;2.75;;;;;;;11.70;63.46;100988.58;1818396;77;21133;-64
2021/11/06 07:37:33;;;;;;;6.53;2.70;;;;;;;11.73;63.15;100990.00;1822951;77;20841;-63
2021/11/06 07:40:00;;;;;;;2.80;2.50;;;;;;;11.73;63.05;100995.37;1814252;77;21057;-64
2021/11/06 07:42:27;;;;;;;6.65;3.25;;;;;;;11.73;63.15;101001.58;1813692;77;21053;-63
2021/11/06 07:44:54;;;;;;;5.20;3.50;;;;;;;11.74;62.74;100998.37;1819579;77;21448;-63
2021/11/06 07:47:20;;;;;;;12.37;3.58;;;;;;;11.69;62.72;101013.78;1817819;77;21120;-65
2021/11/06 07:49:46;;;;;;;8.18;3.37;;;;;;;11.68;62.76;101025.55;1814822;77;20924;-65
2021/11/06 07:52:13;;;;;;;7.30;3.70;;;;;;;11.65;62.75;101028.66;1819151;77;20871;-64
2021/11/06 07:54:39;;;;;;;8.65;3.80;;;;;;;11.56;62.89;101032.07;1813210;77;21606;-64
2021/11/06 07:57:07;;;;;;;7.25;4.22;;;;;;;11.48;62.99;101032.27;1809458;78;20967;-64
2021/11/06 07:59:34;;;;;;;6.70;3.85;;;;;;;11.39;63.18;101046.45;1812185;78;21826;-66
2021/11/06 08:02:00;;;;;;;7.95;3.77;;;;;;;11.33;63.40;101054.49;1810428;78;20994;-64
2021/11/06 08:04:26;;;;;;;5.35;3.65;;;;;;;11.30;63.58;101057.06;1810012;78;20983;-64
2021/11/06 08:06:53;;;;;;;7.10;3.80;;;;;;;11.33;63.60;101059.33;1809958;78;21039;-64
2021/11/06 08:09:19;;;;;;;6.92;3.90;;;;;;;11.34;63.52;101057.50;1810800;78;21031;-63
2021/11/06 08:11:46;;;;;;;6.37;3.42;;;;;;;11.32;63.77;101055.52;1806953;78;21090;-64
2021/11/06 08:14:13;;;;;;;5.50;3.58;;;;;;;11.34;63.81;101061.52;1810220;78;20910;-63
2021/11/06 08:16:39;;;;;;;7.42;3.22;;;;;;;11.34;63.73;101070.39;1809183;78;20920;-63
2021/11/06 08:19:06;;;;;;;5.12;3.37;;;;;;;11.38;63.68;101070.79;1810258;78;20935;-64
2021/11/06 08:21:33;;;;;;;4.85;3.52;;;;;;;11.39;63.78;101069.77;1809542;78;20907;-64
2021/11/06 08:23:59;;;;;;;5.55;3.52;;;;;;;11.44;63.89;101067.80;1810679;78;21747;-64
2021/11/06 08:26:26;;;;;;;5.47;3.58;;;;;;;11.52;63.98;101059.02;1810505;78;20998;-64
2021/11/06 08:28:54;;;;;;;8.05;4.17;;;;;;;11.64;64.06;101047.66;1806878;78;21011;-64
2021/11/06 08:31:20;;;;;;;6.25;3.75;;;;;;;11.73;63.98;101043.71;1809686;78;21018;-64
2021/11/06 08:33:47;;;;;;;5.45;3.47;;;;;;;11.81;63.74;101044.03;1807472;78;21022;-63
2021/11/06 08:36:14;;;;;;;4.08;3.08;;;;;;;11.94;63.70;101061.50;1810487;78;21897;-64
2021/11/06 08:38:41;;;;;;;3.67;2.95;;;;;;;12.09;62.88;101060.72;1810491;78;20908;-65
2021/11/06 08:41:07;;;;;;;5.22;3.22;;;;;;;12.25;62.64;101054.05;1815817;77;20986;-65
2021/11/06 08:43:33;;;;;;;4.47;3.17;;;;;;;12.42;61.37;101052.23;1818512;77;20939;-64
2021/11/06 08:46:01;;;;;;;6.92;3.70;;;;;;;12.48;60.72;101055.40;1812079;78;21734;-63
2021/11/06 08:48:28;;;;;;;7.62;3.65;;;;;;;12.51;60.96;101067.60;1809751;78;21135;-64
2021/11/06 08:50:54;;;;;;;5.72;3.58;;;;;;;12.57;60.39;101074.31;1809232;78;21547;-63
2021/11/06 08:53:21;;;;;;;9.30;4.12;;;;;;;12.56;60.05;101072.65;1809649;78;20988;-64
2021/11/06 08:55:49;;;;;;;8.40;3.85;;;;;;;12.59;60.35;101065.49;1809842;78;20981;-64
2021/11/06 08:58:16;;;;;;;7.50;3.90;;;;;;;12.67;60.03;101067.10;1810628;78;20943;-65
2021/11/06 09:00:44;;;;;;;7.55;3.75;;;;;;;12.71;59.51;101064.30;1809929;78;21077;-64
2021/11/06 09:03:14;;;;;;;8.63;4.35;;;;;;;12.71;58.89;101058.10;1810441;78;20898;-65
2021/11/06 09:05:41;;;;;;;10.43;5.12;;;;;;;12.67;59.34;101062.25;1810048;78;21406;-65
2021/11/06 09:08:08;;;;;;;10.78;4.85;;;;;;;12.72;59.08;101074.02;1810544;78;20999;-65
2021/11/06 09:10:34;;;;;;;9.18;4.60;;;;;;;12.71;58.63;101071.55;1811870;78;20920;-65
2021/11/06 09:13:01;;;;;;;12.53;4.20;;;;;;;12.60;58.36;101073.87;1809623;78;21129;-64
2021/11/06 09:15:27;;;;;;;8.33;4.50;;;;;;;12.55;58.37;101055.38;1810543;78;21509;-64
2021/11/06 09:17:54;;;;;;;6.78;3.83;;;;;;;12.53;58.67;101054.25;1809030;78;21029;-64
2021/11/06 09:20:21;;;;;;;11.88;5.17;;;;;;;12.55;58.85;101045.44;1793463;78;20970;-64
2021/11/06 09:22:48;;;;;;;8.58;4.33;;;;;;;12.61;58.91;101041.88;1808958;78;21556;-63
2021/11/06 09:25:14;;;;;;;4.87;3.80;;;;;;;12.69;58.93;101038.64;1809184;78;21810;-64
2021/11/06 09:27:42;;;;;;;7.72;3.98;;;;;;;12.78;58.90;101045.44;1809261;78;20998;-64
2021/11/06 09:30:10;;;;;;;9.30;4.37;;;;;;;12.86;58.65;101038.44;1816319;77;21034;-64
2021/11/06 09:32:38;;;;;;;7.10;4.10;;;;;;;12.95;58.15;101026.36;1810734;78;22005;-65
2021/11/06 09:35:07;;;;;;;7.47;4.00;;;;;;;13.02;57.18;101029.02;1824128;77;21525;-65
2021/11/06 09:37:34;;;;;;;5.63;4.37;;;;;;;13.01;56.72;101030.05;1820637;77;21121;-63
2021/11/06 09:40:00;;;;;;;6.05;4.60;;;;;;;13.01;56.50;101025.20;1820175;77;20963;-63
2021/11/06 09:42:27;;;;;;;6.78;4.40;;;;;;;13.05;56.55;101016.47;1818351;77;20987;-64
2021/11/06 09:44:54;;;;;;;7.22;4.37;;;;;;;13.11;56.65;101015.58;1814483;77;21107;-66
2021/11/06 09:47:21;;;;;;;5.80;4.67;;;;;;;13.23;56.13;101027.81;1821942;77;21537;-64
2021/11/06 09:49:47;;;;;;;9.55;5.28;;;;;;;13.28;56.05;101029.84;1815508;77;21172;-64
2021/11/06 09:52:14;;;;;;;7.30;4.83;;;;;;;13.31;55.94;101022.70;1817171;77;20924;-65
2021/11/06 09:54:41;;;;;;;6.95;4.80;;;;;;;13.37;55.81;101019.15;1817964;77;21342;-64
2021/11/06 09:57:08;;;;;;;7.90;4.20;;;;;;;13.44;55.74;101020.42;1824588;77;38378;-66
2021/11/06 09:59:35;;;;;;;4.87;3.90;;;;;;;13.49;55.11;101024.63;1816069;77;21567;-65
2021/11/06 10:02:02;;;;;;;5.90;4.65;;;;;;;13.55;55.18;101026.97;1817826;77;21147;-65
2021/11/06 10:04:30;;;;;;;5.85;4.95;;;;;;;13.54;54.06;101013.19;1817646;77;20955;-64
2021/11/06 10:06:59;;;;;;;;;;;;;;;13.40;54.05;101011.97;1815270;77;21544;-63
2021/11/06 10:09:25;;;;;;;7.17;4.15;;;;;;;13.28;54.55;101015.88;1797532;77;20121;-65
2021/11/06 10:11:53;;;;;;;8.98;4.10;;;;;;;13.23;54.59;101010.31;1811903;77;21063;-64
2021/11/06 10:14:23;;;;;;;8.40;4.58;;;;;;;13.19;53.66;101011.81;1809574;77;21196;-66
2021/11/06 10:16:57;;;;;;;5.50;4.05;;;;;;;13.09;54.47;101020.37;1811923;77;22145;-62
2021/11/06 10:19:39;;;;;;;5.90;4.17;;;;;;;13.07;54.48;101018.94;1808077;78;21068;-65
2021/11/06 10:22:14;;;;;;;4.10;3.67;;;;;;;13.05;54.97;101008.39;1811879;77;21003;-65
2021/11/06 10:24:50;;;;;;;6.33;3.90;;;;;;;13.14;54.90;101005.72;1810988;77;21006;-64
2021/11/06 10:27:32;;;;;;;5.67;3.75;;;;;;;13.17;54.81;101011.73;1813308;77;21162;-65
2021/11/06 10:30:09;;;;;;;6.62;3.70;;;;;;;13.19;54.50;101009.63;1811708;77;20856;-64
2021/11/06 10:32:36;;;;;;;5.20;3.93;;;;;;;13.20;54.49;101002.68;1810980;78;20966;-65
2021/11/06 10:35:21;;;;;;;7.55;4.20;;;;;;;13.21;54.04;101004.34;1818124;77;21001;-64
2021/11/06 10:38:02;;;;;;;5.97;4.33;;;;;;;13.26;53.98;100992.90;1811581;77;21500;-64
2021/11/06 10:40:30;;;;;;;8.93;4.78;;;;;;;13.23;53.88;100986.61;1807750;77;21141;-64
2021/11/06 10:42:59;;;;;;;;;;;;;;;13.19;53.73;100987.59;1817734;77;21038;-63
2021/11/06 10:45:32;;;;;;;5.92;4.12;;;;;;;13.18;54.60;100990.50;1814636;77;20157;-64
2021/11/06 10:48:07;;;;;;;6.05;4.45;;;;;;;13.24;54.81;100982.35;1817335;77;21082;-64
2021/11/06 10:50:48;;;;;;;10.28;4.50;;;;;;;13.31;54.86;100983.66;1814519;77;20928;-65
2021/11/06 10:53:37;;;;;;;5.20;3.90;;;;;;;13.35;54.28;100976.79;1802221;77;21170;-65
2021/11/06 10:56:23;;;;;;;5.53;4.05;;;;;;;13.29;51.78;100985.73;1809040;77;21603;-64
2021/11/06 10:58:51;;;;;;;5.62;3.40;;;;;;;13.11;51.50;100976.55;1807680;78;21039;-64
2021/11/06 11:01:24;;;;;;;5.40;3.87;;;;;;;12.92;51.50;100981.05;1813801;77;21670;-65
2021/11/06 11:03:52;;;;;;;5.10;3.50;;;;;;;12.86;51.67;100979.77;1814733;78;21103;-65
2021/11/06 11:06:27;;;;;;;6.30;4.25;;;;;;;12.80;51.90;100978.77;1784244;77;21161;-65
2021/11/06 11:08:52;;;;;;;3.95;3.45;;;;;;;12.77;52.17;100977.86;1810034;78;21029;-65
2021/11/06 11:11:24;;;;;;;4.62;3.83;;;;;;;12.80;51.62;100974.73;1814269;77;21026;-65
2021/11/06 11:14:03;;;;;;;7.55;3.60;;;;;;;12.82;51.67;100974.52;1817535;77;21017;-65
2021/11/06 11:16:32;;;;;;;5.15;3.45;;;;;;;12.88;51.52;100974.48;1818433;77;20911;-64
2021/11/06 11:19:06;;;;;;;5.50;4.17;;;;;;;12.92;51.57;100975.67;1819480;77;21500;-64
2021/11/06 11:21:43;;;;;;;12.25;4.33;;;;;;;12.95;51.59;100971.19;1817647;77;20939;-65